Time;durP1;ratioP1;P1;durP2;ratioP2;P2;SDS_P1;SDS_P2;PMS_P1;PMS_P2;Temp;Humidity;BMP_temperature;BMP_pressure;BME280_temperature;BME280_humidity;BME280_pressure;Samples;Min_cycle;Max_cycle;Signal;HPM_P1;HPM_P2
2022/07/29 00:01:21;;;;;;;4.88;1.35;;;15.10;99.90;;;;;;5044219;28;20044;-62
2022/07/29 00:03:47;;;;;;;2.85;1.10;;;15.20;99.90;;;;;;5050251;28;20479;-62
2022/07/29 00:06:14;;;;;;;2.38;1.00;;;15.10;99.90;;;;;;5035861;28;20033;-62
2022/07/29 00:08:40;;;;;;;4.22;1.52;;;15.00;99.90;;;;;;5040515;28;20033;-62
2022/07/29 00:11:05;;;;;;;2.35;0.93;;;15.10;99.90;;;;;;5056802;28;20062;-62
2022/07/29 00:13:31;;;;;;;2.25;1.20;;;14.90;99.90;;;;;;5042629;28;20041;-63
2022/07/29 00:15:56;;;;;;;1.88;1.05;;;14.90;99.90;;;;;;5052168;28;20701;-62
2022/07/29 00:18:22;;;;;;;5.75;1.13;;;15.10;99.90;;;;;;5034862;28;20045;-62
2022/07/29 00:20:48;;;;;;;1.73;0.80;;;15.10;99.90;;;;;;5054514;28;20036;-62
2022/07/29 00:23:13;;;;;;;3.53;1.00;;;15.00;99.90;;;;;;5047352;28;20108;-62
2022/07/29 00:25:39;;;;;;;2.20;1.23;;;15.10;99.90;;;;;;5056366;28;20037;-62
2022/07/29 00:28:04;;;;;;;3.63;1.23;;;14.70;99.90;;;;;;5047041;28;20028;-62
2022/07/29 00:30:30;;;;;;;2.35;1.30;;;14.80;99.90;;;;;;5043155;28;20092;-62
2022/07/29 00:32:55;;;;;;;4.30;1.50;;;14.90;99.90;;;;;;5050433;28;20483;-62
2022/07/29 00:38:05;;;;;;;1.88;1.00;;;14.80;99.90;;;;;;5047002;28;20084;-62
2022/07/29 00:40:30;;;;;;;3.00;1.00;;;14.90;99.90;;;;;;5048552;28;20542;-62
2022/07/29 00:42:56;;;;;;;3.08;1.20;;;14.90;99.90;;;;;;5042438;28;20491;-62
2022/07/29 00:45:22;;;;;;;2.72;0.98;;;14.90;99.90;;;;;;5043536;28;20132;-62
2022/07/29 00:47:48;;;;;;;3.67;1.55;;;14.90;99.90;;;;;;5045661;28;20033;-62
2022/07/29 00:50:14;;;;;;;3.78;1.17;;;14.90;99.90;;;;;;5047448;28;20045;-62
2022/07/29 00:52:41;;;;;;;5.90;1.20;;;14.80;99.90;;;;;;5042275;28;20029;-62
2022/07/29 00:55:10;;;;;;;5.75;1.45;;;14.70;99.90;;;;;;5046634;28;20062;-62
2022/07/29 00:57:36;;;;;;;2.17;1.20;;;14.80;99.90;;;;;;5047304;28;20053;-62
2022/07/29 01:00:08;;;;;;;4.38;1.20;;;14.80;99.90;;;;;;5045236;28;20049;-62
2022/07/29 01:02:33;;;;;;;2.50;1.20;;;14.70;99.90;;;;;;5049894;28;20040;-62
2022/07/29 01:04:59;;;;;;;4.45;1.23;;;;;;;;;;5049646;28;20037;-62
2022/07/29 01:07:27;;;;;;;2.85;1.52;;;14.80;99.90;;;;;;5049388;28;20044;-62
2022/07/29 01:09:54;;;;;;;4.18;1.60;;;14.60;99.90;;;;;;5050570;28;20052;-62
2022/07/29 01:12:24;;;;;;;3.60;1.50;;;14.80;99.90;;;;;;5054542;28;20052;-62
2022/07/29 01:14:51;;;;;;;3.60;1.33;;;14.60;99.90;;;;;;5048940;28;20120;-62
2022/07/29 01:17:20;;;;;;;2.90;1.50;;;14.70;99.90;;;;;;5049664;28;20044;-62
2022/07/29 01:19:57;;;;;;;5.28;1.40;;;14.60;99.90;;;;;;5045978;28;20491;-62
2022/07/29 01:22:34;;;;;;;5.63;1.75;;;14.50;99.90;;;;;;5054732;28;20119;-62
2022/07/29 01:25:12;;;;;;;2.55;1.52;;;14.70;99.90;;;;;;5052281;28;20045;-62
2022/07/29 01:27:56;;;;;;;3.83;1.65;;;14.70;99.90;;;;;;5042241;28;20175;-62
2022/07/29 01:30:24;;;;;;;2.80;1.70;;;14.50;99.90;;;;;;5052604;28;20040;-63
2022/07/29 01:32:54;;;;;;;4.07;1.65;;;14.80;99.90;;;;;;5054817;28;20391;-62
2022/07/29 01:35:36;;;;;;;5.07;1.75;;;14.60;99.90;;;;;;5048607;28;20040;-62
2022/07/29 01:38:10;;;;;;;3.63;1.40;;;14.70;99.90;;;;;;5049928;28;20080;-62
2022/07/29 01:40:40;;;;;;;7.25;1.77;;;14.70;99.90;;;;;;5045263;28;20430;-62
2022/07/29 01:43:11;;;;;;;4.93;1.95;;;14.60;99.90;;;;;;5053523;28;20495;-61
2022/07/29 01:46:00;;;;;;;3.88;1.40;;;14.50;99.90;;;;;;5048362;28;20099;-62
2022/07/29 01:48:40;;;;;;;4.32;1.70;;;14.70;99.90;;;;;;5041425;28;20041;-62
2022/07/29 01:51:28;;;;;;;2.55;1.50;;;14.60;99.90;;;;;;5046421;28;20487;-62
2022/07/29 01:54:16;;;;;;;3.65;1.80;;;14.70;99.90;;;;;;5049638;28;20120;-62
2022/07/29 01:56:45;;;;;;;6.22;1.85;;;14.80;99.90;;;;;;5042207;28;20399;-62
2022/07/29 01:59:11;;;;;;;4.82;2.25;;;14.50;99.90;;;;;;5050565;28;20446;-62
2022/07/29 02:01:40;;;;;;;4.10;1.77;;;14.70;99.90;;;;;;5050822;28;20051;-62
2022/07/29 02:04:09;;;;;;;2.75;1.42;;;14.60;99.90;;;;;;5050143;28;20045;-62
2022/07/29 02:06:37;;;;;;;3.67;1.50;;;14.50;99.90;;;;;;5036193;28;20060;-62
2022/07/29 02:09:05;;;;;;;2.72;1.40;;;14.70;99.90;;;;;;5049044;28;20088;-62
2022/07/29 02:11:32;;;;;;;4.80;1.50;;;14.70;99.90;;;;;;5049265;28;20037;-62
2022/07/29 02:13:59;;;;;;;5.00;1.35;;;14.60;99.90;;;;;;5043988;28;20037;-61
2022/07/29 02:16:28;;;;;;;2.92;1.30;;;14.70;99.90;;;;;;5050945;28;20390;-62
2022/07/29 02:18:56;;;;;;;3.72;1.70;;;14.70;99.90;;;;;;5047977;28;20506;-62
2022/07/29 02:21:25;;;;;;;4.65;2.42;;;14.70;99.90;;;;;;5041256;28;20049;-62
2022/07/29 02:23:52;;;;;;;3.05;1.38;;;14.70;99.90;;;;;;5041377;28;20072;-62
2022/07/29 02:26:20;;;;;;;3.80;1.60;;;14.70;99.90;;;;;;5046390;28;20041;-62
2022/07/29 02:28:49;;;;;;;2.67;1.60;;;14.50;99.90;;;;;;5049949;28;20049;-62
2022/07/29 02:31:17;;;;;;;4.03;2.15;;;14.50;99.90;;;;;;5051084;28;20065;-62
2022/07/29 02:33:43;;;;;;;3.97;1.83;;;14.60;99.90;;;;;;5040607;28;20446;-62
2022/07/29 02:36:10;;;;;;;4.85;1.58;;;14.50;99.90;;;;;;5042405;28;20042;-62
2022/07/29 02:38:51;;;;;;;4.70;1.90;;;14.70;99.90;;;;;;5044635;28;20056;-62
2022/07/29 02:41:20;;;;;;;4.68;1.70;;;14.70;99.90;;;;;;5049122;28;20111;-62
2022/07/29 02:43:50;;;;;;;6.22;1.80;;;14.50;99.90;;;;;;5052601;28;20060;-62
2022/07/29 02:46:20;;;;;;;3.63;1.48;;;14.70;99.90;;;;;;5045668;28;20098;-62
2022/07/29 02:49:12;;;;;;;4.93;1.50;;;14.70;99.90;;;;;;5033488;28;20085;-62
2022/07/29 02:51:53;;;;;;;2.42;1.20;;;14.70;99.90;;;;;;5049570;28;20095;-62
2022/07/29 02:54:41;;;;;;;2.55;1.48;;;14.60;99.90;;;;;;5050469;28;20124;-62
2022/07/29 02:57:26;;;;;;;3.03;1.55;;;14.70;99.90;;;;;;5048874;28;20033;-62
2022/07/29 02:59:53;;;;;;;7.47;1.88;;;14.70;99.90;;;;;;5046003;28;20045;-62
2022/07/29 03:02:21;;;;;;;4.70;1.60;;;14.70;99.90;;;;;;5047332;28;20475;-62
2022/07/29 03:04:48;;;;;;;5.50;1.73;;;14.70;99.90;;;;;;5040709;28;20049;-62
2022/07/29 03:07:17;;;;;;;4.28;1.60;;;14.70;99.90;;;;;;5051549;28;20106;-61
2022/07/29 03:09:45;;;;;;;2.33;1.20;;;14.60;99.90;;;;;;5042057;28;20049;-61
2022/07/29 03:12:11;;;;;;;5.03;1.85;;;14.50;99.90;;;;;;5044668;28;20108;-61
2022/07/29 03:14:38;;;;;;;3.03;1.30;;;14.70;99.90;;;;;;5049649;28;20037;-62
2022/07/29 03:17:04;;;;;;;5.20;2.08;;;14.70;99.90;;;;;;5048590;28;20479;-62
2022/07/29 03:19:30;;;;;;;3.45;1.73;;;14.60;99.90;;;;;;5036155;28;20045;-62
2022/07/29 03:21:57;;;;;;;3.10;1.52;;;14.70;99.90;;;;;;5048510;28;20511;-62
2022/07/29 03:24:28;;;;;;;5.55;1.80;;;14.70;99.90;;;;;;5050432;28;20076;-62
2022/07/29 03:26:55;;;;;;;3.75;1.48;;;14.60;99.90;;;;;;5042919;28;20041;-62
2022/07/29 03:29:21;;;;;;;6.32;1.88;;;14.70;99.90;;;;;;5044156;28;20446;-62
2022/07/29 03:31:46;;;;;;;2.72;1.35;;;14.70;99.90;;;;;;5039847;28;20045;-62
2022/07/29 03:34:12;;;;;;;5.65;1.30;;;14.70;99.90;;;;;;5037935;28;20455;-62
2022/07/29 03:36:37;;;;;;;4.88;1.70;;;14.70;99.90;;;;;;5050869;28;20068;-62
2022/07/29 03:39:05;;;;;;;3.25;1.52;;;14.60;99.90;;;;;;5046201;28;20068;-62
2022/07/29 03:41:31;;;;;;;3.17;1.42;;;14.60;99.90;;;;;;5049938;28;20438;-62
2022/07/29 03:43:58;;;;;;;3.10;1.60;;;14.60;99.90;;;;;;5040064;28;20041;-62
2022/07/29 03:46:28;;;;;;;2.90;1.65;;;14.50;99.90;;;;;;5027908;28;20507;-62
2022/07/29 03:48:59;;;;;;;3.88;1.65;;;14.60;99.90;;;;;;5046140;28;20044;-62
2022/07/29 03:51:25;;;;;;;3.83;1.42;;;14.60;99.90;;;;;;5049967;28;20503;-61
2022/07/29 03:53:51;;;;;;;2.65;1.50;;;14.50;99.90;;;;;;5035872;28;20049;-62
2022/07/29 03:56:21;;;;;;;4.63;1.40;;;14.30;99.90;;;;;;5038295;28;20037;-62
2022/07/29 03:58:51;;;;;;;3.47;1.60;;;14.50;99.90;;;;;;5041863;28;20048;-61
2022/07/29 04:01:18;;;;;;;3.92;1.70;;;14.40;99.90;;;;;;5045428;28;20398;-61
2022/07/29 04:03:47;;;;;;;3.55;1.70;;;14.60;99.90;;;;;;5041946;28;20049;-61
2022/07/29 04:06:13;;;;;;;2.83;1.52;;;14.30;99.90;;;;;;5048609;28;20068;-61
2022/07/29 04:08:38;;;;;;;4.53;2.00;;;14.40;99.90;;;;;;5044694;28;20512;-62
2022/07/29 04:11:05;;;;;;;3.08;1.75;;;14.40;99.90;;;;;;5035847;28;20048;-62
2022/07/29 04:13:31;;;;;;;4.32;1.60;;;14.30;99.90;;;;;;5044244;28;20037;-61
2022/07/29 04:15:57;;;;;;;3.58;0.90;;;14.40;99.90;;;;;;5050411;28;20044;-62
2022/07/29 04:18:23;;;;;;;4.13;1.40;;;14.40;99.90;;;;;;5036661;28;20037;-61
2022/07/29 04:20:49;;;;;;;4.18;1.50;;;14.30;99.90;;;;;;5044755;28;20077;-61
2022/07/29 04:23:15;;;;;;;2.17;1.20;;;;;;;;;;5046678;28;20123;-61
2022/07/29 04:25:41;;;;;;;3.97;1.70;;;14.20;99.90;;;;;;5025889;28;20467;-61
2022/07/29 04:28:07;;;;;;;2.15;1.45;;;14.30;99.90;;;;;;5032817;28;20049;-61
2022/07/29 04:30:34;;;;;;;2.67;1.80;;;14.30;99.90;;;;;;5046971;28;20072;-61
2022/07/29 04:33:02;;;;;;;6.10;1.55;;;14.20;99.90;;;;;;5046259;28;20100;-62
2022/07/29 04:35:29;;;;;;;3.83;1.40;;;14.10;99.90;;;;;;5037502;28;20052;-62
2022/07/29 04:37:54;;;;;;;4.15;1.73;;;14.20;99.90;;;;;;5036330;28;20040;-61
2022/07/29 04:40:20;;;;;;;4.18;1.73;;;14.20;99.90;;;;;;5046789;28;20128;-61
2022/07/29 04:42:46;;;;;;;4.40;1.42;;;14.40;99.90;;;;;;5040332;28;20053;-61
2022/07/29 04:45:11;;;;;;;4.85;2.30;;;14.30;99.90;;;;;;5044541;28;20032;-62
2022/07/29 04:47:37;;;;;;;4.15;1.27;;;14.20;99.90;;;;;;5038602;28;20124;-61
2022/07/29 04:50:03;;;;;;;3.08;1.10;;;14.40;99.90;;;;;;5053696;28;20439;-61
2022/07/29 04:52:29;;;;;;;3.45;1.30;;;14.40;99.90;;;;;;5039077;28;20510;-61
2022/07/29 04:54:54;;;;;;;6.22;2.03;;;14.10;99.90;;;;;;5035997;28;20049;-61
2022/07/29 04:57:20;;;;;;;2.85;1.50;;;14.20;99.90;;;;;;5041509;28;20041;-61
2022/07/29 04:59:45;;;;;;;3.60;1.50;;;14.40;99.90;;;;;;5040133;28;20048;-61
2022/07/29 05:02:11;;;;;;;3.85;1.70;;;14.30;99.90;;;;;;5051404;28;20118;-62
2022/07/29 05:04:36;;;;;;;3.83;1.52;;;14.40;99.90;;;;;;5050618;28;20083;-61
2022/07/29 05:07:02;;;;;;;3.08;1.40;;;14.40;99.90;;;;;;5036191;28;20120;-61
2022/07/29 05:09:28;;;;;;;4.30;1.70;;;14.50;99.90;;;;;;5052053;28;20033;-61
2022/07/29 05:11:53;;;;;;;3.47;1.58;;;14.30;99.90;;;;;;5039195;28;20551;-61
2022/07/29 05:14:19;;;;;;;3.70;1.63;;;14.40;99.90;;;;;;5042246;28;20438;-61
2022/07/29 05:16:44;;;;;;;4.22;1.70;;;14.50;99.90;;;;;;5041159;28;20500;-61
2022/07/29 05:19:10;;;;;;;6.43;1.83;;;;;;;;;;5051668;28;20478;-62
2022/07/29 05:21:36;;;;;;;4.15;1.77;;;14.50;99.90;;;;;;5042583;28;20400;-61
2022/07/29 05:24:01;;;;;;;9.45;1.90;;;14.40;99.90;;;;;;5049553;28;20039;-61
2022/07/29 05:26:27;;;;;;;4.13;1.67;;;14.50;99.90;;;;;;5041992;28;20032;-62
2022/07/29 05:28:53;;;;;;;4.55;2.13;;;14.50;99.90;;;;;;5035882;28;20491;-61
2022/07/29 05:31:19;;;;;;;3.47;1.40;;;14.60;99.90;;;;;;5034483;28;20045;-61
2022/07/29 05:33:45;;;;;;;2.85;1.50;;;;;;;;;;5040861;28;20040;-62
2022/07/29 05:36:11;;;;;;;4.03;1.45;;;14.70;99.90;;;;;;5047664;28;20036;-61
2022/07/29 05:38:37;;;;;;;4.93;1.65;;;;;;;;;;5038730;28;20041;-61
2022/07/29 05:41:04;;;;;;;5.85;1.92;;;14.60;99.90;;;;;;5051469;28;20045;-61
2022/07/29 05:43:30;;;;;;;2.35;1.48;;;;;;;;;;5025829;28;20049;-61
2022/07/29 05:45:56;;;;;;;2.90;1.48;;;;;;;;;;5039676;28;20056;-61
2022/07/29 05:48:22;;;;;;;6.20;1.63;;;14.90;99.90;;;;;;5040558;28;20048;-61
2022/07/29 05:50:47;;;;;;;3.67;1.52;;;14.90;99.90;;;;;;5048834;28;20041;-62
2022/07/29 05:53:13;;;;;;;4.90;1.52;;;15.10;99.90;;;;;;5039321;28;20399;-62
2022/07/29 05:55:38;;;;;;;5.00;1.40;;;15.10;99.90;;;;;;5037748;28;20506;-62
2022/07/29 05:58:04;;;;;;;3.10;1.60;;;;;;;;;;5048284;28;20053;-61
2022/07/29 06:00:30;;;;;;;7.10;1.25;;;15.10;99.90;;;;;;5047708;28;20419;-61
2022/07/29 06:02:56;;;;;;;5.40;1.48;;;15.50;99.90;;;;;;5049576;28;20044;-62
2022/07/29 06:05:22;;;;;;;4.05;1.40;;;15.60;99.90;;;;;;5040812;28;20075;-62
2022/07/29 06:07:48;;;;;;;3.15;1.38;;;15.80;99.90;;;;;;5044240;28;20037;-61
2022/07/29 06:10:14;;;;;;;3.50;1.30;;;16.10;99.90;;;;;;5050080;28;20567;-62
2022/07/29 06:12:39;;;;;;;5.50;1.23;;;16.10;99.90;;;;;;5046921;28;20041;-62
2022/07/29 06:15:05;;;;;;;4.07;1.13;;;16.00;99.90;;;;;;5039807;28;20037;-61
2022/07/29 06:17:31;;;;;;;5.70;1.45;;;15.90;99.90;;;;;;5051250;28;20067;-62
2022/07/29 06:19:57;;;;;;;2.67;1.48;;;16.00;99.90;;;;;;5044966;28;20491;-61
2022/07/29 06:22:23;;;;;;;5.13;1.60;;;15.80;99.90;;;;;;5048966;28;20402;-62
2022/07/29 06:24:49;;;;;;;5.30;1.67;;;15.70;99.90;;;;;;5039406;28;20496;-62
2022/07/29 06:27:14;;;;;;;5.18;1.50;;;15.80;99.90;;;;;;5041237;28;20048;-61
2022/07/29 06:29:40;;;;;;;2.67;1.20;;;14.30;99.90;;;;;;5045799;28;20453;-62
2022/07/29 06:32:06;;;;;;;7.32;1.48;;;;;;;;;;5039623;28;20618;-62
2022/07/29 06:34:32;;;;;;;4.85;1.70;;;15.60;99.90;;;;;;5047638;28;20414;-62
2022/07/29 06:36:58;;;;;;;3.20;1.50;;;;;;;;;;5043806;28;20048;-62
2022/07/29 06:39:24;;;;;;;4.95;1.50;;;;;;;;;;5046279;28;20036;-62
2022/07/29 06:41:50;;;;;;;2.78;1.27;;;15.60;99.90;;;;;;5049890;28;20048;-62
2022/07/29 06:44:17;;;;;;;4.43;1.40;;;15.80;99.90;;;;;;5048096;28;20040;-62
2022/07/29 06:46:43;;;;;;;3.85;1.67;;;15.50;99.90;;;;;;5039572;28;20087;-62
2022/07/29 06:49:09;;;;;;;4.30;1.55;;;15.90;99.90;;;;;;5046232;28;20445;-62
2022/07/29 06:51:35;;;;;;;4.55;1.55;;;15.60;99.90;;;;;;5040334;28;20353;-62
2022/07/29 06:54:02;;;;;;;7.22;1.88;;;15.70;99.90;;;;;;5038886;28;20033;-62
2022/07/29 06:56:29;;;;;;;2.78;1.30;;;15.70;99.90;;;;;;5041566;28;20049;-62
2022/07/29 06:58:54;;;;;;;3.47;1.70;;;15.70;99.90;;;;;;5050850;28;20095;-62
2022/07/29 07:01:20;;;;;;;6.72;1.80;;;15.80;99.90;;;;;;5050142;28;20037;-62
2022/07/29 07:03:45;;;;;;;5.95;1.58;;;15.80;99.90;;;;;;5042015;28;20304;-62
2022/07/29 07:06:11;;;;;;;6.20;1.75;;;15.80;99.90;;;;;;5040073;28;20048;-62
2022/07/29 07:08:36;;;;;;;9.57;2.95;;;15.90;99.90;;;;;;5043253;28;20044;-62
2022/07/29 07:11:03;;;;;;;4.47;1.90;;;15.70;99.90;;;;;;5042368;28;20079;-62
2022/07/29 07:13:33;;;;;;;6.60;1.88;;;15.80;99.90;;;;;;5053036;28;20064;-62
2022/07/29 07:16:00;;;;;;;3.13;1.15;;;15.80;99.90;;;;;;5052844;28;20037;-62
2022/07/29 07:18:25;;;;;;;4.50;1.52;;;15.80;99.90;;;;;;5051299;28;20025;-62
2022/07/29 07:20:51;;;;;;;3.92;1.45;;;15.80;99.90;;;;;;5032038;28;20052;-62
2022/07/29 07:23:16;;;;;;;8.85;2.15;;;15.80;99.90;;;;;;5031650;28;20060;-62
2022/07/29 07:25:42;;;;;;;4.88;1.60;;;15.80;99.90;;;;;;5031641;28;20415;-62
2022/07/29 07:28:07;;;;;;;5.95;2.00;;;15.80;99.90;;;;;;5039377;28;20041;-62
2022/07/29 07:30:33;;;;;;;5.28;1.38;;;15.80;99.90;;;;;;5037021;28;20052;-62
2022/07/29 07:32:59;;;;;;;6.25;1.58;;;15.80;99.90;;;;;;5031197;28;20034;-62
2022/07/29 07:35:27;;;;;;;5.85;1.90;;;15.80;99.90;;;;;;5032744;28;20042;-62
2022/07/29 07:37:53;;;;;;;3.30;1.60;;;15.80;99.90;;;;;;5050688;28;20049;-62
2022/07/29 07:40:19;;;;;;;6.13;1.80;;;15.80;99.90;;;;;;5040686;28;20044;-62
2022/07/29 07:42:44;;;;;;;4.65;1.58;;;15.70;99.90;;;;;;5032529;28;20385;-62
2022/07/29 07:45:11;;;;;;;3.58;1.75;;;15.80;99.90;;;;;;5031548;28;20041;-62
2022/07/29 07:47:38;;;;;;;6.70;1.40;;;15.80;99.90;;;;;;5032922;28;20415;-62
2022/07/29 07:50:09;;;;;;;4.95;1.48;;;15.80;99.90;;;;;;5032593;28;20037;-62
2022/07/29 07:52:34;;;;;;;5.72;1.63;;;15.60;99.90;;;;;;5046770;28;20037;-62
2022/07/29 07:55:00;;;;;;;8.13;2.55;;;15.80;99.90;;;;;;5032815;28;20029;-62
2022/07/29 07:57:26;;;;;;;8.15;2.25;;;15.90;99.90;;;;;;5045203;28;20432;-62
2022/07/29 07:59:52;;;;;;;5.22;1.83;;;15.80;99.90;;;;;;5038037;28;20044;-62
2022/07/29 08:02:17;;;;;;;4.35;1.77;;;15.80;99.90;;;;;;5058375;28;20552;-62
2022/07/29 08:04:43;;;;;;;6.07;1.50;;;15.80;99.90;;;;;;5032493;28;20033;-62
2022/07/29 08:07:08;;;;;;;6.05;1.83;;;15.70;99.90;;;;;;5031086;28;20065;-62
2022/07/29 08:09:35;;;;;;;5.05;1.98;;;15.90;99.90;;;;;;5038871;28;20042;-62
2022/07/29 08:12:03;;;;;;;3.83;1.90;;;16.10;99.90;;;;;;5045134;28;20472;-62
2022/07/29 08:14:29;;;;;;;5.90;1.70;;;16.00;99.90;;;;;;5032063;28;20033;-62
2022/07/29 08:16:55;;;;;;;2.53;1.63;;;15.90;99.90;;;;;;5030735;28;20045;-62
2022/07/29 08:19:21;;;;;;;6.90;1.70;;;16.00;99.90;;;;;;5030838;28;20064;-62
2022/07/29 08:21:46;;;;;;;3.10;1.60;;;15.90;99.90;;;;;;5032275;28;20061;-62
2022/07/29 08:26:56;;;;;;;9.45;2.33;;;16.00;99.90;;;;;;5032159;28;20049;-62
2022/07/29 08:29:21;;;;;;;4.63;1.67;;;16.10;99.90;;;;;;5037694;28;20554;-62
2022/07/29 08:31:47;;;;;;;4.43;1.90;;;16.00;99.90;;;;;;5040400;28;20067;-62
2022/07/29 08:34:13;;;;;;;4.88;1.88;;;16.20;99.90;;;;;;5014217;28;20039;-62
2022/07/29 08:36:38;;;;;;;7.03;1.83;;;16.10;99.90;;;;;;5042037;28;20091;-62
2022/07/29 08:39:04;;;;;;;4.07;2.05;;;16.10;99.90;;;;;;5036698;28;20403;-62
2022/07/29 08:41:31;;;;;;;3.20;1.38;;;16.20;99.90;;;;;;5044061;28;20049;-62
2022/07/29 08:43:57;;;;;;;3.30;1.40;;;16.00;99.90;;;;;;5032034;28;20446;-62
2022/07/29 08:46:23;;;;;;;4.72;1.70;;;16.10;99.90;;;;;;5033959;28;20029;-62
2022/07/29 08:48:49;;;;;;;4.57;1.75;;;16.30;99.90;;;;;;5031707;28;20484;-62
2022/07/29 08:51:17;;;;;;;8.18;2.08;;;16.20;99.90;;;;;;5045834;28;20040;-62
2022/07/29 08:53:44;;;;;;;6.65;2.65;;;16.30;99.90;;;;;;5038819;28;20029;-62
2022/07/29 08:56:17;;;;;;;8.20;2.53;;;16.30;99.90;;;;;;5034118;28;20433;-62
2022/07/29 08:58:44;;;;;;;7.20;1.90;;;16.30;99.90;;;;;;5041873;28;20201;-62
2022/07/29 09:01:11;;;;;;;5.13;1.90;;;16.40;99.90;;;;;;5043021;28;20040;-62
2022/07/29 09:03:39;;;;;;;7.15;1.80;;;16.30;99.90;;;;;;5032629;28;20195;-62
2022/07/29 09:06:05;;;;;;;5.72;2.17;;;16.50;99.90;;;;;;5042119;28;20037;-62
2022/07/29 09:08:32;;;;;;;9.15;2.20;;;16.60;99.90;;;;;;5034610;28;20045;-62
2022/07/29 09:11:00;;;;;;;4.70;1.98;;;16.70;99.90;;;;;;5031663;28;20124;-62
2022/07/29 09:13:26;;;;;;;6.72;2.40;;;16.60;99.90;;;;;;5031720;28;20050;-62
2022/07/29 09:15:52;;;;;;;10.90;2.90;;;16.50;99.90;;;;;;5030404;28;20037;-62
2022/07/29 09:18:37;;;;;;;7.07;2.45;;;16.70;99.90;;;;;;5031899;28;20087;-62
2022/07/29 09:24:07;;;;;;;5.05;2.17;;;16.90;99.90;;;;;;5036058;28;20124;-62
2022/07/29 09:26:35;;;;;;;6.50;2.35;;;17.00;99.90;;;;;;5043486;28;20376;-63
2022/07/29 09:29:09;;;;;;;5.07;2.20;;;17.00;99.90;;;;;;5035058;28;20224;-62
2022/07/29 09:31:37;;;;;;;5.15;1.98;;;17.00;99.90;;;;;;5033856;28;20136;-62
2022/07/29 09:34:04;;;;;;;4.28;1.70;;;17.20;99.90;;;;;;5033570;28;20042;-62
2022/07/29 09:36:30;;;;;;;6.07;2.53;;;17.30;99.90;;;;;;5038188;28;20029;-62
2022/07/29 09:39:02;;;;;;;6.22;2.60;;;17.50;99.90;;;;;;5040692;28;20411;-62
2022/07/29 09:41:29;;;;;;;6.28;2.67;;;17.50;99.90;;;;;;5047556;28;20067;-62
2022/07/29 09:43:56;;;;;;;5.35;2.20;;;17.50;99.90;;;;;;5034854;28;20487;-62
2022/07/29 09:46:22;;;;;;;5.45;2.35;;;17.60;99.90;;;;;;5035251;28;20037;-62
2022/07/29 09:49:07;;;;;;;5.53;2.38;;;17.50;99.90;;;;;;5045137;28;20375;-62
2022/07/29 09:51:33;;;;;;;3.78;1.80;;;17.50;99.90;;;;;;5057339;28;20403;-62
2022/07/29 09:54:00;;;;;;;5.65;2.47;;;17.70;99.90;;;;;;5040296;28;20045;-62
2022/07/29 09:56:39;;;;;;;7.63;2.20;;;17.80;99.90;;;;;;5047406;28;20426;-62
2022/07/29 09:59:06;;;;;;;5.30;1.83;;;17.80;99.90;;;;;;5034240;28;20045;-62
2022/07/29 10:01:31;;;;;;;8.38;2.38;;;17.90;99.90;;;;;;5048140;28;20590;-62
2022/07/29 10:03:57;;;;;;;4.93;2.10;;;17.90;99.90;;;;;;5040155;28;20123;-62
2022/07/29 10:06:23;;;;;;;7.95;2.83;;;17.90;99.90;;;;;;5040451;28;20049;-62
2022/07/29 10:08:49;;;;;;;4.80;2.30;;;;;;;;;;5034758;28;20515;-62
2022/07/29 10:11:17;;;;;;;4.63;2.72;;;18.30;99.90;;;;;;5034195;28;20045;-62
2022/07/29 10:13:44;;;;;;;4.25;2.38;;;18.60;99.90;;;;;;5034064;28;20041;-62
2022/07/29 10:16:10;;;;;;;5.50;2.88;;;18.90;99.90;;;;;;5034130;28;20395;-62
2022/07/29 10:18:39;;;;;;;6.65;2.75;;;19.20;99.90;;;;;;5048239;28;20136;-62
2022/07/29 10:21:05;;;;;;;7.72;2.58;;;19.30;99.90;;;;;;5052846;28;20045;-62
2022/07/29 10:23:31;;;;;;;5.45;2.25;;;19.40;99.90;;;;;;5039925;28;20054;-62
2022/07/29 10:25:57;;;;;;;5.03;2.67;;;19.60;99.90;;;;;;5032731;28;20072;-62
2022/07/29 10:28:24;;;;;;;4.95;2.25;;;19.80;99.90;;;;;;5033820;28;20175;-63
2022/07/29 10:30:52;;;;;;;6.90;2.60;;;20.00;99.90;;;;;;5037623;28;20076;-62
2022/07/29 10:33:43;;;;;;;6.18;2.10;;;19.90;99.90;;;;;;5042064;28;20096;-62
2022/07/29 10:36:20;;;;;;;6.10;2.67;;;20.40;99.90;;;;;;5035332;28;20076;-63
2022/07/29 10:38:51;;;;;;;6.25;2.30;;;20.50;99.90;;;;;;5047815;28;20523;-62
2022/07/29 10:41:39;;;;;;;6.88;2.35;;;20.60;99.90;;;;;;5033912;28;20045;-62
2022/07/29 10:44:20;;;;;;;5.50;2.22;;;20.60;99.90;;;;;;5035046;28;20091;-62
2022/07/29 10:46:46;;;;;;;5.53;2.28;;;20.40;99.90;;;;;;5053490;28;20040;-62
2022/07/29 10:49:26;;;;;;;6.43;2.05;;;20.40;99.90;;;;;;5036786;28;20053;-63
2022/07/29 10:52:00;;;;;;;4.20;1.90;;;20.40;99.90;;;;;;5033644;28;20040;-63
2022/07/29 10:54:34;;;;;;;5.57;2.40;;;20.40;99.90;;;;;;5039422;28;20487;-62
2022/07/29 10:57:34;;;;;;;8.77;2.10;;;20.60;99.90;;;;;;5033547;28;20084;-62
2022/07/29 11:00:08;;;;;;;3.20;1.80;;;20.70;99.90;;;;;;5035055;28;20462;-62
2022/07/29 11:02:37;;;;;;;4.00;1.65;;;20.50;99.90;;;;;;5042939;28;20048;-63
2022/07/29 11:05:08;;;;;;;4.53;2.15;;;20.50;99.90;;;;;;5032339;28;20100;-62
2022/07/29 11:07:35;;;;;;;6.72;2.05;;;20.70;99.90;;;;;;5040364;28;20110;-63
2022/07/29 11:10:12;;;;;;;4.80;2.38;;;20.80;99.90;;;;;;5037734;28;20045;-63
2022/07/29 11:12:38;;;;;;;4.10;1.90;;;20.90;99.90;;;;;;5031784;28;20076;-62
2022/07/29 11:15:08;;;;;;;4.20;1.80;;;20.70;99.90;;;;;;5032107;28;20068;-63
2022/07/29 11:17:56;;;;;;;8.05;2.35;;;20.80;99.90;;;;;;5033132;28;20029;-63
2022/07/29 11:20:46;;;;;;;5.93;2.30;;;21.10;99.90;;;;;;5032883;28;20049;-63
2022/07/29 11:23:19;;;;;;;7.22;1.83;;;21.10;99.90;;;;;;5036697;28;20037;-63
2022/07/29 11:26:05;;;;;;;8.13;2.10;;;20.80;99.90;;;;;;5039110;28;20087;-63
2022/07/29 11:28:30;;;;;;;6.28;2.03;;;20.90;99.90;;;;;;5052632;28;20106;-63
2022/07/29 11:30:56;;;;;;;3.30;1.80;;;20.90;99.90;;;;;;5051135;28;20045;-62
2022/07/29 11:33:33;;;;;;;4.45;1.65;;;20.90;99.90;;;;;;5051266;28;20045;-63
2022/07/29 11:36:08;;;;;;;6.50;1.75;;;20.70;99.90;;;;;;5052800;28;20032;-63
2022/07/29 11:38:34;;;;;;;6.82;1.50;;;20.70;99.90;;;;;;5048824;28;20564;-63
2022/07/29 11:41:22;;;;;;;5.55;1.38;;;20.70;99.90;;;;;;5052409;28;20132;-63
2022/07/29 11:43:59;;;;;;;6.10;1.80;;;21.00;99.90;;;;;;5051669;28;20376;-62
2022/07/29 11:46:48;;;;;;;4.85;1.38;;;20.70;99.90;;;;;;5041006;28;20086;-63
2022/07/29 11:49:22;;;;;;;5.60;1.67;;;21.10;99.90;;;;;;5050708;28;20080;-62
2022/07/29 11:51:52;;;;;;;11.60;1.52;;;21.20;99.90;;;;;;5041042;28;20037;-63
2022/07/29 11:54:26;;;;;;;4.07;1.25;;;21.20;99.90;;;;;;5050352;28;20047;-63
2022/07/29 11:56:52;;;;;;;5.80;1.70;;;21.20;99.90;;;;;;5052643;28;20037;-63
2022/07/29 11:59:19;;;;;;;5.43;1.40;;;21.30;99.90;;;;;;5050467;28;20134;-63
2022/07/29 12:01:55;;;;;;;4.72;1.27;;;21.30;99.90;;;;;;5048723;28;20045;-63
2022/07/29 12:04:23;;;;;;;7.43;1.65;;;21.20;99.90;;;;;;5050911;28;20056;-63
2022/07/29 12:06:53;;;;;;;5.53;1.98;;;21.50;99.90;;;;;;5052097;28;20041;-63
2022/07/29 12:09:19;;;;;;;5.53;1.55;;;21.50;99.90;;;;;;5050225;28;20053;-63
2022/07/29 12:11:46;;;;;;;6.40;1.50;;;21.60;99.90;;;;;;5051002;28;20134;-63
2022/07/29 12:14:32;;;;;;;3.17;1.55;;;21.60;99.90;;;;;;5045167;28;20044;-63
2022/07/29 12:16:59;;;;;;;6.30;2.28;;;21.70;99.90;;;;;;5047696;28;20403;-63
2022/07/29 12:19:25;;;;;;;5.68;2.08;;;21.70;99.90;;;;;;5050638;28;20124;-63
2022/07/29 12:21:56;;;;;;;9.52;1.73;;;21.80;99.90;;;;;;5051072;28;20517;-63
2022/07/29 12:24:22;;;;;;;4.93;1.45;;;22.20;99.90;;;;;;5049824;28;20041;-63
2022/07/29 12:26:53;;;;;;;6.07;1.67;;;21.80;99.90;;;;;;5039224;28;20037;-63
2022/07/29 12:29:19;;;;;;;6.50;1.70;;;22.10;99.90;;;;;;5050007;28;20572;-63
2022/07/29 12:31:46;;;;;;;6.57;1.33;;;22.00;99.90;;;;;;5051673;28;20037;-63
2022/07/29 12:34:13;;;;;;;8.60;2.40;;;21.80;99.90;;;;;;5037957;28;20033;-63
2022/07/29 12:36:40;;;;;;;5.10;2.67;;;22.30;99.90;;;;;;5024368;28;20088;-63
2022/07/29 12:39:06;;;;;;;7.78;1.38;;;22.10;99.90;;;;;;5047956;28;20570;-63
2022/07/29 12:41:32;;;;;;;6.97;1.55;;;21.70;99.90;;;;;;5050499;28;20113;-63
2022/07/29 12:43:58;;;;;;;6.65;1.40;;;22.00;99.90;;;;;;5050829;28;20040;-63
2022/07/29 12:46:23;;;;;;;7.90;1.48;;;21.80;99.90;;;;;;5039829;28;20533;-63
2022/07/29 12:48:57;;;;;;;7.05;1.98;;;21.80;99.90;;;;;;5050594;28;20047;-63
2022/07/29 12:51:38;;;;;;;4.85;1.10;;;21.60;99.90;;;;;;5050284;28;20041;-63
2022/07/29 12:54:05;;;;;;;5.53;1.40;;;21.60;99.90;;;;;;5049062;28;20491;-63
2022/07/29 12:56:30;;;;;;;5.22;1.45;;;21.60;99.90;;;;;;5053899;28;20037;-63
2022/07/29 12:58:56;;;;;;;3.88;1.00;;;21.90;99.90;;;;;;5037439;28;20053;-63
2022/07/29 13:01:22;;;;;;;5.68;1.55;;;22.10;99.90;;;;;;5055343;28;20055;-63
2022/07/29 13:03:51;;;;;;;6.00;2.25;;;22.20;99.90;;;;;;5055599;28;20037;-63
2022/07/29 13:06:43;;;;;;;4.65;1.40;;;22.30;99.90;;;;;;5043658;28;20033;-63